createdAt,value
2019-05-26T00:00:18.665Z,-149
2019-05-26T00:00:49.242Z,-149
2019-05-26T00:01:18.722Z,-152
2019-05-26T00:01:48.921Z,-148
2019-05-26T00:02:18.963Z,-150
2019-05-26T00:02:48.773Z,-150
2019-05-26T00:03:18.895Z,-148
2019-05-26T00:03:48.776Z,-149
2019-05-26T00:04:18.847Z,-149
2019-05-26T00:04:48.847Z,-148
2019-05-26T00:05:18.988Z,-149
2019-05-26T00:05:48.949Z,-149
2019-05-26T00:06:18.946Z,-148
2019-05-26T00:06:49.029Z,-148
2019-05-26T00:07:29.981Z,-149
2019-05-26T00:07:48.911Z,-148
2019-05-26T00:08:18.836Z,-148
2019-05-26T00:08:48.892Z,-149
2019-05-26T00:09:19.073Z,-147
2019-05-26T00:09:49.079Z,-148
2019-05-26T00:10:19.069Z,-148
2019-05-26T00:10:49.095Z,-149
2019-05-26T00:11:19.029Z,-149
2019-05-26T00:11:49.334Z,-149
2019-05-26T00:12:19.022Z,-148
2019-05-26T00:12:48.984Z,-148
2019-05-26T00:13:19.114Z,-150
2019-05-26T00:13:49.186Z,-150
2019-05-26T00:14:19.147Z,-148
2019-05-26T00:14:49.201Z,-150
2019-05-26T00:15:19.228Z,-147
2019-05-26T00:15:49.116Z,-147
2019-05-26T00:16:19.097Z,-149
2019-05-26T00:16:49.230Z,-149
2019-05-26T00:17:19.106Z,-149
2019-05-26T00:17:49.237Z,-149
2019-05-26T00:18:19.157Z,-146
2019-05-26T00:18:49.087Z,-146
2019-05-26T00:19:19.123Z,-147
2019-05-26T00:19:49.118Z,-149
2019-05-26T00:20:19.257Z,-149
2019-05-26T00:20:49.241Z,-148
2019-05-26T00:21:19.165Z,-147
2019-05-26T00:21:49.175Z,-148
2019-05-26T00:22:19.238Z,-147
2019-05-26T00:22:49.290Z,-149
2019-05-26T00:23:21.635Z,-148
2019-05-26T00:23:49.248Z,-148
2019-05-26T00:24:19.198Z,-148
2019-05-26T00:24:49.296Z,-148
2019-05-26T00:25:19.472Z,-147
2019-05-26T00:26:19.635Z,-148
2019-05-26T00:26:49.497Z,-150
2019-05-26T00:27:19.439Z,-150
2019-05-26T00:27:49.431Z,-150
2019-05-26T00:28:19.418Z,-150
2019-05-26T00:28:49.541Z,-145
2019-05-26T00:29:19.653Z,-150
2019-05-26T00:29:49.646Z,-150
2019-05-26T00:30:19.772Z,-149
2019-05-26T00:30:49.651Z,-149
2019-05-26T00:31:19.691Z,-150
2019-05-26T00:31:49.543Z,-150
2019-05-26T00:32:19.587Z,-149
2019-05-26T00:32:49.627Z,-151
2019-05-26T00:33:19.730Z,-150
2019-05-26T00:34:49.774Z,-151
2019-05-26T00:35:19.689Z,-147
2019-05-26T00:35:49.648Z,-152
2019-05-26T00:36:19.663Z,-149
2019-05-26T00:36:49.960Z,-149
2019-05-26T00:37:19.771Z,-147
2019-05-26T00:37:50.615Z,-149
2019-05-26T00:38:19.745Z,-150
2019-05-26T00:38:49.702Z,-150
2019-05-26T00:39:19.820Z,-148
2019-05-26T00:39:49.780Z,-148
2019-05-26T00:40:19.744Z,-150
2019-05-26T00:40:49.829Z,-149
2019-05-26T00:41:19.805Z,-149
2019-05-26T00:41:50.010Z,-145
2019-05-26T00:42:19.951Z,-148
2019-05-26T00:42:50.110Z,-152
2019-05-26T00:43:19.901Z,-145
2019-05-26T00:43:49.847Z,-145
2019-05-26T00:44:19.924Z,-149
2019-05-26T00:44:50.232Z,-149
2019-05-26T00:45:20.081Z,-150
2019-05-26T00:45:50.092Z,-150
2019-05-26T00:46:20.009Z,-149
2019-05-26T00:46:50.090Z,-149
2019-05-26T00:47:20.059Z,-149
2019-05-26T00:47:50.020Z,-149
2019-05-26T00:48:19.941Z,-148
2019-05-26T00:48:49.946Z,-148
2019-05-26T00:49:20.102Z,-148
2019-05-26T00:49:50.099Z,-146
2019-05-26T00:50:20.082Z,-150
2019-05-26T00:50:50.293Z,-150
2019-05-26T00:51:20.272Z,-149
2019-05-26T00:51:50.196Z,-148
2019-05-26T00:52:20.206Z,-146
2019-05-26T00:52:50.325Z,-146
2019-05-26T00:53:20.470Z,-146
2019-05-26T00:53:50.348Z,-150
2019-05-26T00:54:20.365Z,-144
2019-05-26T00:54:50.413Z,-148
2019-05-26T00:55:20.281Z,-151
2019-05-26T00:55:50.541Z,-148
2019-05-26T00:56:20.296Z,-146
2019-05-26T00:56:50.327Z,-147
2019-05-26T00:57:20.226Z,-149
2019-05-26T00:57:50.293Z,-149
2019-05-26T00:58:20.394Z,-147
2019-05-26T00:58:50.272Z,-151
2019-05-26T00:59:20.439Z,-151
2019-05-26T00:59:50.306Z,-149
2019-05-26T01:00:20.345Z,-151
2019-05-26T01:00:50.474Z,-151
2019-05-26T01:01:20.317Z,-149
2019-05-26T01:01:50.521Z,-149
2019-05-26T01:02:20.552Z,-149
2019-05-26T01:02:50.501Z,-152
2019-05-26T01:03:20.487Z,-152
2019-05-26T01:03:50.546Z,-149
2019-05-26T01:04:20.518Z,-149
2019-05-26T01:04:50.708Z,-149
2019-05-26T01:05:50.817Z,-151
2019-05-26T01:06:20.761Z,-151
2019-05-26T01:06:52.703Z,-149
2019-05-26T01:07:20.612Z,-151
2019-05-26T01:08:05.108Z,-151
2019-05-26T01:08:20.607Z,-148
2019-05-26T01:09:20.837Z,-147
2019-05-26T01:10:20.794Z,-148
2019-05-26T01:10:50.763Z,-150
2019-05-26T01:11:20.862Z,-150
2019-05-26T01:12:20.832Z,-149
2019-05-26T01:13:20.912Z,-149
2019-05-26T01:15:50.880Z,-149
2019-05-26T01:16:20.887Z,-148
2019-05-26T01:16:50.896Z,-148
2019-05-26T01:17:50.914Z,-150
2019-05-26T01:18:20.877Z,-148
2019-05-26T01:18:50.921Z,-148
2019-05-26T01:19:20.916Z,-151
2019-05-26T01:19:50.894Z,-151
2019-05-26T01:20:50.930Z,-150
2019-05-26T01:21:20.927Z,-149
2019-05-26T01:21:50.997Z,-148
2019-05-26T01:22:21.026Z,-148
2019-05-26T01:22:53.675Z,-148
2019-05-26T01:23:20.984Z,-150
2019-05-26T01:23:51.020Z,-150
2019-05-26T01:24:21.088Z,-150
2019-05-26T01:24:51.147Z,-149
2019-05-26T01:25:21.157Z,-148
2019-05-26T01:25:51.215Z,-148
2019-05-26T01:26:21.191Z,-148
2019-05-26T01:26:51.085Z,-148
2019-05-26T01:27:21.022Z,-147
2019-05-26T01:27:51.073Z,-147
2019-05-26T01:28:21.425Z,-148
2019-05-26T01:29:21.287Z,-150
2019-05-26T01:29:51.398Z,-148
2019-05-26T01:32:21.385Z,-148
2019-05-26T01:32:51.351Z,-150
2019-05-26T01:33:21.506Z,-151
2019-05-26T01:33:51.466Z,-150
2019-05-26T01:34:21.563Z,-150
2019-05-26T01:34:51.447Z,-147
2019-05-26T01:35:21.339Z,-150
2019-05-26T01:35:51.336Z,-148
2019-05-26T01:36:51.420Z,-148
2019-05-26T01:37:21.345Z,-170
2019-05-26T01:37:51.426Z,-149
2019-05-26T01:38:24.034Z,-147
2019-05-26T01:38:51.418Z,-147
2019-05-26T01:39:21.539Z,-148
2019-05-26T01:40:21.459Z,-148
2019-05-26T01:40:51.618Z,-147
2019-05-26T01:41:21.447Z,-147
2019-05-26T01:41:51.674Z,-149
2019-05-26T01:42:21.616Z,-148
2019-05-26T01:42:51.634Z,-147
2019-05-26T01:43:21.718Z,-148
2019-05-26T01:43:51.574Z,-149
2019-05-26T01:44:21.645Z,-149
2019-05-26T01:44:51.691Z,-147
2019-05-26T01:45:21.735Z,-150
2019-05-26T01:45:51.859Z,-150
2019-05-26T01:46:21.753Z,-148
2019-05-26T01:46:51.648Z,-148
2019-05-26T01:47:21.878Z,-149
2019-05-26T01:47:51.683Z,-150
2019-05-26T01:48:21.855Z,-148
2019-05-26T01:48:51.855Z,-149
2019-05-26T01:49:21.817Z,-151
2019-05-26T01:49:52.000Z,-148
2019-05-26T01:50:21.876Z,-148
2019-05-26T01:50:52.112Z,-148
2019-05-26T01:51:21.761Z,-148
2019-05-26T01:51:51.784Z,-148
2019-05-26T01:52:21.977Z,-148
2019-05-26T01:52:52.041Z,-146
2019-05-26T01:53:22.040Z,-149
2019-05-26T01:53:52.111Z,-147
2019-05-26T01:55:22.134Z,-151
2019-05-26T01:55:52.142Z,-150
2019-05-26T01:56:22.136Z,-150
2019-05-26T01:56:52.154Z,-149
2019-05-26T01:57:22.174Z,-149
2019-05-26T01:57:52.124Z,-149
2019-05-26T01:58:22.157Z,-149
2019-05-26T01:58:52.222Z,-148
2019-05-26T01:59:22.224Z,-148
2019-05-26T01:59:52.178Z,-147
2019-05-26T02:00:22.405Z,-148
2019-05-26T02:00:52.210Z,-148
2019-05-26T02:01:22.206Z,-148
2019-05-26T02:02:22.259Z,-148
2019-05-26T02:02:52.257Z,-151
2019-05-26T02:03:22.331Z,-150
2019-05-26T02:03:52.340Z,-149
2019-05-26T02:04:22.613Z,-150
2019-05-26T02:04:52.427Z,-150
2019-05-26T02:05:22.497Z,-150
2019-05-26T02:05:52.513Z,-150
2019-05-26T02:06:22.354Z,-149
2019-05-26T02:06:52.320Z,-150
2019-05-26T02:07:22.402Z,-150
2019-05-26T02:07:52.328Z,-151
2019-05-26T02:08:36.559Z,-149
2019-05-26T02:08:52.603Z,-151
2019-05-26T02:09:22.660Z,-150
2019-05-26T02:09:52.592Z,-151
2019-05-26T02:10:52.530Z,-152
2019-05-26T02:11:22.603Z,-152
2019-05-26T02:11:52.582Z,-153
2019-05-26T02:13:52.649Z,-152
2019-05-26T02:14:22.838Z,-149
2019-05-26T02:14:52.651Z,-151
2019-05-26T02:15:22.667Z,-151
2019-05-26T02:15:52.620Z,-151
2019-05-26T02:16:22.657Z,-150
2019-05-26T02:16:52.591Z,-150
2019-05-26T02:17:22.743Z,-151
2019-05-26T02:17:52.641Z,-148
2019-05-26T02:18:22.719Z,-151
2019-05-26T02:18:52.669Z,-151
2019-05-26T02:19:22.687Z,-151
2019-05-26T02:19:52.722Z,-150
2019-05-26T02:20:22.690Z,-152
2019-05-26T02:20:52.709Z,-152
2019-05-26T02:21:22.782Z,-149
2019-05-26T02:21:52.746Z,-149
2019-05-26T02:22:22.825Z,-147
2019-05-26T02:22:52.741Z,-147
2019-05-26T02:23:52.705Z,-152
2019-05-26T02:24:22.833Z,-152
2019-05-26T02:24:53.010Z,-150
2019-05-26T02:25:23.154Z,-148
2019-05-26T02:25:53.045Z,-150
2019-05-26T02:26:22.978Z,-148
2019-05-26T02:26:52.882Z,-147
2019-05-26T02:27:22.892Z,-147
2019-05-26T02:27:52.868Z,-149
2019-05-26T02:28:22.973Z,-148
2019-05-26T02:28:53.144Z,-149
2019-05-26T02:29:23.104Z,-152
2019-05-26T02:29:53.117Z,-146
2019-05-26T02:30:23.247Z,-149
2019-05-26T02:30:53.066Z,-151
2019-05-26T02:31:23.044Z,-151
2019-05-26T02:31:52.992Z,-149
2019-05-26T02:32:22.996Z,-153
2019-05-26T02:32:53.285Z,-149
2019-05-26T02:33:23.210Z,-149
2019-05-26T02:33:53.212Z,-147
2019-05-26T02:34:23.318Z,-147
2019-05-26T02:34:53.097Z,-150
2019-05-26T02:35:23.097Z,-148
2019-05-26T02:35:53.387Z,-150
2019-05-26T02:36:23.101Z,-150
2019-05-26T02:36:53.176Z,-153
2019-05-26T02:37:53.218Z,-150
2019-05-26T02:38:26.195Z,-149
2019-05-26T02:39:01.716Z,-149
2019-05-26T02:39:23.249Z,-146
2019-05-26T02:39:53.280Z,-149
2019-05-26T02:40:23.350Z,-152
2019-05-26T02:40:53.311Z,-153
2019-05-26T02:41:23.498Z,-146
2019-05-26T02:41:53.354Z,-148
2019-05-26T02:42:23.385Z,-148
2019-05-26T02:42:53.340Z,-149
2019-05-26T02:43:23.360Z,-149
2019-05-26T02:43:53.377Z,-149
2019-05-26T02:44:23.389Z,-150
2019-05-26T02:44:53.449Z,-152
2019-05-26T02:45:23.609Z,-146
2019-05-26T02:45:53.486Z,-147
2019-05-26T02:46:23.451Z,-147
2019-05-26T02:46:53.750Z,-147
2019-05-26T02:47:23.369Z,-149
2019-05-26T02:47:53.440Z,-147
2019-05-26T02:48:53.600Z,-148
2019-05-26T02:49:23.595Z,-152
2019-05-26T02:49:53.630Z,-152
2019-05-26T02:50:24.035Z,-148
2019-05-26T02:50:53.519Z,-148
2019-05-26T02:51:23.476Z,-150
2019-05-26T02:51:53.510Z,-151
2019-05-26T02:52:23.807Z,-147
2019-05-26T02:52:53.732Z,-147
2019-05-26T02:53:24.794Z,-150
2019-05-26T02:53:53.764Z,-150
2019-05-26T02:54:24.101Z,-150
2019-05-26T02:54:53.830Z,-151
2019-05-26T02:55:23.799Z,-150
2019-05-26T02:55:53.724Z,-150
2019-05-26T02:56:23.811Z,-151
2019-05-26T02:56:53.812Z,-149
2019-05-26T02:57:23.803Z,-148
2019-05-26T02:57:53.882Z,-152
2019-05-26T02:58:23.786Z,-153
2019-05-26T02:58:54.060Z,-153
2019-05-26T02:59:23.847Z,-149
2019-05-26T02:59:53.810Z,-149
2019-05-26T03:00:23.891Z,-148
2019-05-26T03:00:53.961Z,-148
2019-05-26T03:01:23.871Z,-155
2019-05-26T03:02:02.837Z,-146
2019-05-26T03:02:24.018Z,-152
2019-05-26T03:02:53.918Z,-149
2019-05-26T03:03:24.068Z,-149
2019-05-26T03:03:53.966Z,-151
2019-05-26T03:04:24.249Z,-151
2019-05-26T03:04:54.245Z,-151
2019-05-26T03:05:24.118Z,-150
2019-05-26T03:05:54.141Z,-150
2019-05-26T03:06:24.052Z,-152
2019-05-26T03:06:54.099Z,-149
2019-05-26T03:07:24.044Z,-148
2019-05-26T03:07:54.221Z,-147
2019-05-26T03:08:24.236Z,-147
2019-05-26T03:08:54.349Z,-150
2019-05-26T03:09:24.212Z,-150
2019-05-26T03:09:54.287Z,-149
2019-05-26T03:10:24.455Z,-149
2019-05-26T03:10:54.218Z,-151
2019-05-26T03:11:24.323Z,-149
2019-05-26T03:11:54.279Z,-149
2019-05-26T03:12:24.283Z,-148
2019-05-26T03:12:54.404Z,-147
2019-05-26T03:13:24.353Z,-149
2019-05-26T03:13:54.507Z,-148
2019-05-26T03:14:24.399Z,-150
2019-05-26T03:14:54.321Z,-147
2019-05-26T03:15:24.376Z,-146
2019-05-26T03:15:54.360Z,-149
2019-05-26T03:16:24.332Z,-145
2019-05-26T03:16:54.384Z,-147
2019-05-26T03:17:24.385Z,-144
2019-05-26T03:17:54.393Z,-144
2019-05-26T03:18:24.443Z,-145
2019-05-26T03:18:54.409Z,-146
2019-05-26T03:19:24.439Z,-149
2019-05-26T03:19:54.526Z,-149
2019-05-26T03:20:24.458Z,-150
2019-05-26T03:20:54.428Z,-145
2019-05-26T03:21:54.495Z,-148
2019-05-26T03:22:24.619Z,-148
2019-05-26T03:22:54.550Z,-152
2019-05-26T03:23:24.501Z,-152
2019-05-26T03:23:54.535Z,-146
2019-05-26T03:24:24.641Z,-149
2019-05-26T03:24:54.637Z,-147
2019-05-26T03:25:54.755Z,-147
2019-05-26T03:26:24.693Z,-151
2019-05-26T03:26:54.646Z,-148
2019-05-26T03:27:24.647Z,-149
2019-05-26T03:27:54.661Z,-147
2019-05-26T03:28:24.759Z,-147
2019-05-26T03:28:54.772Z,-151
2019-05-26T03:29:24.843Z,-153
2019-05-26T03:29:54.916Z,-153
2019-05-26T03:30:54.907Z,-147
2019-05-26T03:31:24.874Z,-150
2019-05-26T03:32:24.935Z,-149
2019-05-26T03:32:54.980Z,-150
2019-05-26T03:34:54.922Z,-153
2019-05-26T03:35:24.990Z,-149
2019-05-26T03:35:54.990Z,-150
2019-05-26T03:36:25.059Z,-152
2019-05-26T03:36:55.070Z,-150
2019-05-26T03:37:24.999Z,-153
2019-05-26T03:37:55.005Z,-154
2019-05-26T03:38:54.969Z,-155
2019-05-26T03:39:42.203Z,-147
2019-05-26T03:39:55.075Z,-147
2019-05-26T03:40:25.109Z,-149
2019-05-26T03:40:55.126Z,-150
2019-05-26T03:41:25.168Z,-147
2019-05-26T03:41:55.228Z,-147
2019-05-26T03:42:25.171Z,-148
2019-05-26T03:43:25.186Z,-149
2019-05-26T03:43:55.153Z,-149
2019-05-26T03:45:25.313Z,-148
2019-05-26T03:45:55.286Z,-147
2019-05-26T03:46:25.239Z,-148
2019-05-26T03:46:55.345Z,-148
2019-05-26T03:47:25.291Z,-145
2019-05-26T03:47:55.263Z,-142
2019-05-26T03:48:55.509Z,-148
2019-05-26T03:49:25.511Z,-137
2019-05-26T03:49:55.538Z,-137
2019-05-26T03:50:55.439Z,-139
2019-05-26T03:51:25.437Z,-138
2019-05-26T03:51:55.485Z,-134
2019-05-26T03:52:55.555Z,-135
2019-05-26T03:53:25.685Z,-133
2019-05-26T03:54:25.724Z,-135
2019-05-26T03:54:55.565Z,-149
2019-05-26T03:55:25.571Z,-150
2019-05-26T03:55:55.568Z,-150
2019-05-26T03:56:25.578Z,-137
2019-05-26T03:56:55.526Z,-135
2019-05-26T03:57:25.592Z,-131
2019-05-26T03:57:55.665Z,-132
2019-05-26T03:58:25.595Z,-133
2019-05-26T03:58:55.594Z,-133
2019-05-26T03:59:25.703Z,-132
2019-05-26T03:59:55.693Z,-130
2019-05-26T04:00:25.805Z,-129
2019-05-26T04:00:55.805Z,-128
2019-05-26T04:01:25.814Z,-128
2019-05-26T04:01:57.422Z,-128
2019-05-26T04:02:25.744Z,-120
2019-05-26T04:02:55.712Z,-124
2019-05-26T04:03:25.852Z,-124
2019-05-26T04:03:55.744Z,-122
2019-05-26T04:04:25.961Z,-124
2019-05-26T04:05:25.969Z,-119
2019-05-26T04:05:55.958Z,-118
2019-05-26T04:06:55.862Z,-117
2019-05-26T04:07:25.910Z,-118
2019-05-26T04:07:55.935Z,-121
2019-05-26T04:08:26.120Z,-113
2019-05-26T04:08:56.132Z,-114
2019-05-26T04:09:26.186Z,-112
2019-05-26T04:10:04.385Z,-111
2019-05-26T04:10:56.039Z,-108
2019-05-26T04:11:25.953Z,-106
2019-05-26T04:11:55.947Z,-104
2019-05-26T04:12:26.147Z,-130
2019-05-26T04:12:56.208Z,-119
2019-05-26T04:13:26.140Z,-121
2019-05-26T04:13:56.235Z,-103
2019-05-26T04:14:26.253Z,-95
2019-05-26T04:14:56.154Z,-94
2019-05-26T04:15:26.111Z,-93
2019-05-26T04:15:56.053Z,-91
2019-05-26T04:16:56.451Z,-90
2019-05-26T04:17:26.119Z,-85
2019-05-26T04:17:56.224Z,-83
2019-05-26T04:18:26.125Z,-80
2019-05-26T04:18:56.152Z,-77
2019-05-26T04:19:26.188Z,-81
2019-05-26T04:19:56.211Z,-74
2019-05-26T04:20:26.163Z,-72
2019-05-26T04:20:56.250Z,-71
2019-05-26T04:21:26.262Z,-68
2019-05-26T04:21:56.400Z,-66
2019-05-26T04:22:26.232Z,-61
2019-05-26T04:22:56.271Z,-64
2019-05-26T04:23:26.248Z,-56
2019-05-26T04:23:56.320Z,-56
2019-05-26T04:24:26.406Z,-58
2019-05-26T04:24:56.552Z,-48
2019-05-26T04:25:26.532Z,-52
2019-05-26T04:26:26.380Z,-50
2019-05-26T04:26:56.353Z,-45
2019-05-26T04:27:56.324Z,-46
2019-05-26T04:28:26.607Z,-46
2019-05-26T04:28:56.570Z,102
2019-05-26T04:29:26.669Z,-121
2019-05-26T04:29:56.577Z,-92
2019-05-26T04:30:26.471Z,-74
2019-05-26T04:30:56.523Z,-79
2019-05-26T04:31:26.449Z,-41
2019-05-26T04:32:00.881Z,-41
2019-05-26T04:32:26.724Z,-38
2019-05-26T04:32:56.701Z,-38
2019-05-26T04:33:26.619Z,-36
2019-05-26T04:33:56.664Z,-41
2019-05-26T04:34:26.800Z,-38
2019-05-26T04:34:56.601Z,-39
2019-05-26T04:35:26.686Z,-38
2019-05-26T04:35:56.605Z,-41
2019-05-26T04:36:26.684Z,-41
2019-05-26T04:36:56.561Z,-36
2019-05-26T04:37:26.601Z,-38
2019-05-26T04:37:56.614Z,-38
2019-05-26T04:38:27.402Z,-38
2019-05-26T04:38:56.642Z,-39
2019-05-26T04:39:26.802Z,107
2019-05-26T04:39:56.653Z,-59
2019-05-26T04:40:27.729Z,106
2019-05-26T04:40:56.741Z,-48
2019-05-26T04:41:26.830Z,-37
2019-05-26T04:41:56.907Z,-32
2019-05-26T04:42:26.802Z,-33
2019-05-26T04:42:56.747Z,-31
2019-05-26T04:43:26.838Z,-32
2019-05-26T04:43:56.748Z,-32
2019-05-26T04:44:26.988Z,-32
2019-05-26T04:44:56.938Z,-28
2019-05-26T04:45:27.004Z,-29
2019-05-26T04:45:57.051Z,-30
2019-05-26T04:46:26.974Z,-25
2019-05-26T04:46:56.945Z,-86
2019-05-26T04:47:27.002Z,-90
2019-05-26T04:47:56.893Z,-25
2019-05-26T04:48:27.081Z,-22
2019-05-26T04:48:57.068Z,-22
2019-05-26T04:49:57.268Z,-22
2019-05-26T04:50:27.230Z,-21
2019-05-26T04:50:57.107Z,-24
2019-05-26T04:51:27.081Z,-37
2019-05-26T04:51:57.093Z,-31
2019-05-26T04:52:27.074Z,-29
2019-05-26T04:53:05.864Z,-29
2019-05-26T04:53:27.220Z,-28
2019-05-26T04:53:57.414Z,-24
2019-05-26T04:54:27.362Z,-27
2019-05-26T04:54:57.153Z,-25
2019-05-26T04:55:27.177Z,-22
2019-05-26T04:55:57.159Z,-25
2019-05-26T04:56:27.147Z,-30
2019-05-26T04:56:57.170Z,-7
2019-05-26T04:57:27.216Z,-6
2019-05-26T04:57:57.247Z,3
2019-05-26T04:58:27.347Z,2
2019-05-26T04:58:57.279Z,1
2019-05-26T04:59:27.232Z,1
2019-05-26T05:00:27.272Z,8
2019-05-26T05:00:57.344Z,11
2019-05-26T05:01:27.342Z,13
2019-05-26T05:01:57.363Z,15
2019-05-26T05:02:27.402Z,15
2019-05-26T05:02:57.332Z,13
2019-05-26T05:03:27.351Z,16
2019-05-26T05:03:57.543Z,-60
2019-05-26T05:04:27.563Z,-28
2019-05-26T05:04:57.507Z,19
2019-05-26T05:05:27.615Z,19
2019-05-26T05:05:57.666Z,33
2019-05-26T05:06:27.510Z,37
2019-05-26T05:06:57.588Z,13
2019-05-26T05:07:28.395Z,22
2019-05-26T05:07:57.483Z,29
2019-05-26T05:08:27.553Z,34
2019-05-26T05:08:57.769Z,29
2019-05-26T05:09:27.879Z,32
2019-05-26T05:09:57.760Z,26
2019-05-26T05:10:41.191Z,36
2019-05-26T05:10:57.641Z,39
2019-05-26T05:11:27.702Z,44
2019-05-26T05:11:57.608Z,45
2019-05-26T05:12:27.683Z,48
2019-05-26T05:12:57.788Z,47
2019-05-26T05:13:27.898Z,49
2019-05-26T05:13:57.971Z,53
2019-05-26T05:14:27.956Z,53
2019-05-26T05:14:57.817Z,55
2019-05-26T05:15:27.782Z,53
2019-05-26T05:15:57.719Z,56
2019-05-26T05:16:27.719Z,60
2019-05-26T05:16:57.785Z,65
2019-05-26T05:17:27.730Z,61
2019-05-26T05:17:57.782Z,64
2019-05-26T05:18:27.813Z,65
2019-05-26T05:18:57.838Z,70
2019-05-26T05:19:27.971Z,70
2019-05-26T05:19:57.788Z,73
2019-05-26T05:20:27.983Z,-115
2019-05-26T05:20:57.819Z,-111
2019-05-26T05:21:28.334Z,-57
2019-05-26T05:21:57.955Z,62
2019-05-26T05:22:27.923Z,69
2019-05-26T05:22:57.925Z,71
2019-05-26T05:23:27.956Z,75
2019-05-26T05:23:57.901Z,79
2019-05-26T05:24:28.001Z,76
2019-05-26T05:24:58.119Z,76
2019-05-26T05:25:28.132Z,76
2019-05-26T05:25:58.305Z,71
2019-05-26T05:26:28.028Z,75
2019-05-26T05:26:57.994Z,75
2019-05-26T05:27:28.013Z,76
2019-05-26T05:27:58.031Z,84
2019-05-26T05:28:28.163Z,79
2019-05-26T05:28:58.170Z,79
2019-05-26T05:29:28.196Z,82
2019-05-26T05:29:58.258Z,81
2019-05-26T05:30:28.093Z,77
2019-05-26T05:30:58.099Z,80
2019-05-26T05:31:28.176Z,83
2019-05-26T05:31:58.109Z,83
2019-05-26T05:32:58.257Z,77
2019-05-26T05:33:28.349Z,80
2019-05-26T05:33:58.308Z,77
2019-05-26T05:34:28.333Z,74
2019-05-26T05:34:58.190Z,78
2019-05-26T05:35:28.184Z,74
2019-05-26T05:35:58.221Z,74
2019-05-26T05:36:28.310Z,77
2019-05-26T05:36:58.236Z,72
2019-05-26T05:37:28.307Z,76
2019-05-26T05:37:58.255Z,-90
2019-05-26T05:38:28.240Z,-33
2019-05-26T05:38:58.304Z,18
2019-05-26T05:39:28.330Z,51
2019-05-26T05:39:58.267Z,78
2019-05-26T05:40:28.377Z,72
2019-05-26T05:40:59.734Z,73
2019-05-26T05:41:28.379Z,80
2019-05-26T05:41:58.401Z,81
2019-05-26T05:42:28.429Z,82
2019-05-26T05:42:58.356Z,82
2019-05-26T05:43:58.440Z,80
2019-05-26T05:44:28.632Z,84
2019-05-26T05:44:58.717Z,77
2019-05-26T05:45:28.506Z,75
2019-05-26T05:45:58.643Z,79
2019-05-26T05:46:28.711Z,74
2019-05-26T05:46:58.514Z,75
2019-05-26T05:47:28.623Z,70
2019-05-26T05:47:58.585Z,67
2019-05-26T05:48:28.751Z,73
2019-05-26T05:48:58.820Z,74
2019-05-26T05:49:28.853Z,74
2019-05-26T05:49:58.752Z,73
2019-05-26T05:50:28.815Z,70
2019-05-26T05:50:58.800Z,71
2019-05-26T05:51:28.762Z,73
2019-05-26T05:51:58.758Z,74
2019-05-26T05:52:29.029Z,74
2019-05-26T05:52:59.034Z,76
2019-05-26T05:53:28.969Z,76
2019-05-26T05:54:29.286Z,82
2019-05-26T05:54:58.935Z,-91
2019-05-26T05:55:28.853Z,-94
2019-05-26T05:55:58.846Z,-32
2019-05-26T05:56:28.918Z,27
2019-05-26T05:56:58.909Z,90
2019-05-26T05:57:28.952Z,92
2019-05-26T05:57:58.957Z,96
2019-05-26T05:58:28.944Z,101
2019-05-26T05:58:58.925Z,100
2019-05-26T05:59:28.958Z,101
2019-05-26T05:59:58.949Z,107
2019-05-26T06:00:29.097Z,110
2019-05-26T06:00:58.975Z,107
2019-05-26T06:01:29.023Z,109
2019-05-26T06:01:59.085Z,119
2019-05-26T06:02:29.080Z,117
2019-05-26T06:02:59.003Z,126
2019-05-26T06:03:29.116Z,123
2019-05-26T06:03:59.312Z,166
2019-05-26T06:04:29.171Z,166
2019-05-26T06:04:59.274Z,168
2019-05-26T06:05:59.669Z,151
2019-05-26T06:06:29.391Z,187
2019-05-26T06:06:59.232Z,225
2019-05-26T06:07:29.184Z,225
2019-05-26T06:07:59.218Z,170
2019-05-26T06:08:29.263Z,174
2019-05-26T06:08:59.338Z,230
2019-05-26T06:09:29.686Z,240
2019-05-26T06:09:59.365Z,189
2019-05-26T06:10:29.377Z,173
2019-05-26T06:11:13.380Z,166
2019-05-26T06:11:29.311Z,165
2019-05-26T06:11:59.341Z,183
2019-05-26T06:12:29.426Z,252
2019-05-26T06:12:59.567Z,223
2019-05-26T06:13:29.811Z,221
2019-05-26T06:13:59.544Z,240
2019-05-26T06:14:29.407Z,238
2019-05-26T06:14:59.471Z,238
2019-05-26T06:15:29.638Z,239
2019-05-26T06:15:59.513Z,221
2019-05-26T06:16:31.695Z,240
2019-05-26T06:16:59.483Z,237
2019-05-26T06:17:29.578Z,234
2019-05-26T06:17:59.524Z,232
2019-05-26T06:18:29.621Z,234
2019-05-26T06:18:59.464Z,227
2019-05-26T06:19:29.590Z,219
2019-05-26T06:19:59.570Z,221
2019-05-26T06:20:29.718Z,231
2019-05-26T06:20:59.558Z,217
2019-05-26T06:21:29.649Z,228
2019-05-26T06:21:59.743Z,225
2019-05-26T06:22:29.591Z,219
2019-05-26T06:22:59.581Z,214
2019-05-26T06:23:29.686Z,212
2019-05-26T06:23:59.590Z,213
2019-05-26T06:24:29.808Z,206
2019-05-26T06:24:59.751Z,206
2019-05-26T06:25:29.867Z,210
2019-05-26T06:25:59.963Z,202
2019-05-26T06:26:29.748Z,203
2019-05-26T06:26:59.717Z,199
2019-05-26T06:27:31.895Z,205
2019-05-26T06:27:59.929Z,199
2019-05-26T06:28:29.994Z,196
2019-05-26T06:28:59.801Z,194
2019-05-26T06:29:29.952Z,190
2019-05-26T06:29:59.842Z,194
2019-05-26T06:30:29.791Z,186
2019-05-26T06:30:59.825Z,186
2019-05-26T06:31:29.867Z,186
2019-05-26T06:32:00.310Z,178
2019-05-26T06:32:29.976Z,181
2019-05-26T06:33:00.030Z,174
2019-05-26T06:33:30.084Z,182
2019-05-26T06:33:59.982Z,173
2019-05-26T06:34:29.917Z,168
2019-05-26T06:34:59.924Z,170
2019-05-26T06:35:32.554Z,168
2019-05-26T06:35:59.910Z,169
2019-05-26T06:36:29.955Z,164
2019-05-26T06:37:00.058Z,166
2019-05-26T06:37:29.962Z,170
2019-05-26T06:38:00.458Z,163
2019-05-26T06:38:30.032Z,160
2019-05-26T06:39:02.198Z,152
2019-05-26T06:39:30.243Z,152
2019-05-26T06:40:00.057Z,147
2019-05-26T06:40:30.089Z,153
2019-05-26T06:41:00.083Z,151
2019-05-26T06:41:33.699Z,146
2019-05-26T06:42:00.073Z,143
2019-05-26T06:42:30.218Z,146
2019-05-26T06:43:00.143Z,142
2019-05-26T06:43:30.284Z,141
2019-05-26T06:44:00.347Z,139
2019-05-26T06:44:30.610Z,145
2019-05-26T06:45:00.324Z,131
2019-05-26T06:46:00.217Z,134
2019-05-26T06:46:30.310Z,129
2019-05-26T06:47:00.238Z,131
2019-05-26T06:47:30.524Z,131
2019-05-26T06:48:00.432Z,128
2019-05-26T06:48:30.603Z,123
2019-05-26T06:49:00.385Z,125
2019-05-26T06:49:32.402Z,122
2019-05-26T06:50:00.489Z,122
2019-05-26T06:50:30.435Z,125
2019-05-26T06:51:00.530Z,127
2019-05-26T06:51:30.703Z,118
2019-05-26T06:52:00.506Z,113
2019-05-26T06:52:30.706Z,114
2019-05-26T06:53:00.904Z,118
2019-05-26T06:53:38.219Z,113
2019-05-26T06:54:00.681Z,117
2019-05-26T06:54:30.552Z,114
2019-05-26T06:55:00.800Z,114
2019-05-26T06:55:30.706Z,105
2019-05-26T06:56:00.826Z,107
2019-05-26T06:56:30.694Z,107
2019-05-26T06:57:00.654Z,115
2019-05-26T06:57:30.696Z,114
2019-05-26T06:58:00.687Z,110
2019-05-26T06:58:30.641Z,106
2019-05-26T06:59:02.805Z,108
2019-05-26T06:59:30.654Z,104
2019-05-26T07:00:00.734Z,111
2019-05-26T07:00:31.041Z,100
2019-05-26T07:01:01.007Z,103
2019-05-26T07:01:30.731Z,97
2019-05-26T07:02:00.681Z,97
2019-05-26T07:02:30.734Z,91
2019-05-26T07:03:00.978Z,94
2019-05-26T07:03:30.838Z,102
2019-05-26T07:04:00.865Z,92
2019-05-26T07:04:31.135Z,92
2019-05-26T07:05:02.084Z,81
2019-05-26T07:05:30.835Z,84
2019-05-26T07:12:31.369Z,79
2019-05-26T07:13:01.349Z,84
2019-05-26T07:13:31.390Z,85
2019-05-26T07:18:31.339Z,76
2019-05-26T07:20:01.344Z,89
2019-05-26T07:20:31.353Z,83
2019-05-26T07:21:01.339Z,88
2019-05-26T07:22:31.478Z,80
2019-05-26T07:24:01.469Z,76
2019-05-26T07:24:31.480Z,73
2019-05-26T07:25:01.521Z,84
2019-05-26T07:26:01.346Z,72
2019-05-26T07:26:31.366Z,91
2019-05-26T07:27:31.491Z,84
2019-05-26T07:28:01.479Z,81
2019-05-26T07:28:31.537Z,71
2019-05-26T07:29:01.685Z,76
2019-05-26T07:29:31.498Z,77
2019-05-26T07:30:01.544Z,78
2019-05-26T07:30:31.487Z,74
2019-05-26T07:31:01.600Z,73
2019-05-26T07:31:31.737Z,73
2019-05-26T07:32:01.586Z,76
2019-05-26T07:32:31.747Z,80